createdAt,value
2022-08-10T00:00:58.578Z,19.90
2022-08-10T00:03:26.526Z,19.80
2022-08-10T00:05:54.909Z,19.70
2022-08-10T00:08:24.979Z,19.70
2022-08-10T00:10:53.446Z,19.60
2022-08-10T00:13:22.166Z,19.60
2022-08-10T00:15:53.891Z,19.50
2022-08-10T00:18:31.586Z,19.50
2022-08-10T00:21:03.722Z,19.50
2022-08-10T00:23:34.700Z,19.40
2022-08-10T00:26:02.930Z,19.40
2022-08-10T00:28:31.027Z,19.30
2022-08-10T00:30:59.187Z,19.30
2022-08-10T00:33:28.766Z,19.20
2022-08-10T00:35:56.807Z,19.20
2022-08-10T00:38:24.873Z,19.20
2022-08-10T00:40:52.965Z,19.10
2022-08-10T00:43:23.746Z,19.10
2022-08-10T00:45:59.308Z,19.10
2022-08-10T00:48:30.869Z,19.00
2022-08-10T00:50:59.875Z,19.00
2022-08-10T00:53:28.681Z,18.90
2022-08-10T00:57:15.647Z,18.90
2022-08-10T00:58:45.950Z,18.90
2022-08-10T01:02:07.670Z,18.80
2022-08-10T01:04:39.555Z,18.80
2022-08-10T01:07:06.079Z,18.80
2022-08-10T01:09:44.528Z,18.70
2022-08-10T01:12:47.341Z,18.70
2022-08-10T01:15:20.368Z,18.60
2022-08-10T01:17:54.304Z,18.60
2022-08-10T01:20:38.743Z,18.60
2022-08-10T01:23:40.411Z,18.60
2022-08-10T01:26:40.749Z,18.50
2022-08-10T01:29:50.032Z,18.40
2022-08-10T01:32:25.837Z,18.40
2022-08-10T01:34:57.992Z,18.40
2022-08-10T01:37:31.266Z,18.30
2022-08-10T01:40:03.138Z,18.30
2022-08-10T01:42:33.965Z,18.20
2022-08-10T01:45:05.933Z,18.20
2022-08-10T01:47:56.208Z,18.20
2022-08-10T01:50:29.494Z,18.10
2022-08-10T01:53:03.539Z,18.10
2022-08-10T01:55:33.029Z,18.00
2022-08-10T01:58:04.252Z,18.00
2022-08-10T02:00:36.151Z,18.00
2022-08-10T02:03:06.765Z,17.90
2022-08-10T02:05:38.118Z,17.90
2022-08-10T02:08:09.333Z,17.90
2022-08-10T02:10:40.539Z,17.80
2022-08-10T02:13:09.977Z,17.80
2022-08-10T02:16:01.101Z,17.70
2022-08-10T02:18:30.862Z,17.70
2022-08-10T02:21:03.943Z,17.70
2022-08-10T02:23:34.029Z,17.60
2022-08-10T02:26:03.972Z,17.60
2022-08-10T02:28:33.918Z,17.60
2022-08-10T02:31:06.644Z,17.60
2022-08-10T02:33:38.154Z,17.60
2022-08-10T02:36:08.647Z,17.50
2022-08-10T02:38:59.062Z,17.50
2022-08-10T02:45:14.469Z,17.40
2022-08-10T02:45:24.708Z,17.40
2022-08-10T02:47:24.886Z,17.30
2022-08-10T02:49:58.336Z,17.30
2022-08-10T02:52:36.146Z,17.30
2022-08-10T02:55:17.914Z,17.20
2022-08-10T02:58:12.679Z,17.20
2022-08-10T03:00:44.229Z,17.10
2022-08-10T03:03:20.109Z,17.10
2022-08-10T03:05:50.192Z,17.00
2022-08-10T03:08:21.731Z,17.00
2022-08-10T03:10:51.557Z,17.00
2022-08-10T03:13:20.393Z,17.00
2022-08-10T03:15:51.290Z,17.00
2022-08-10T03:18:24.570Z,16.90
2022-08-10T03:20:53.838Z,16.90
2022-08-10T03:23:24.891Z,16.90
2022-08-10T03:25:55.068Z,16.80
2022-08-10T03:28:23.864Z,16.80
2022-08-10T03:30:52.112Z,16.80
2022-08-10T03:33:22.341Z,16.70
2022-08-10T03:36:44.039Z,16.70
2022-08-10T03:38:40.386Z,16.70
2022-08-10T03:41:16.373Z,16.70
2022-08-10T03:43:47.907Z,16.70
2022-08-10T03:46:19.100Z,16.70
2022-08-10T03:48:52.325Z,16.60
2022-08-10T03:51:21.197Z,16.60
2022-08-10T03:54:04.368Z,16.60
2022-08-10T03:56:37.659Z,16.60
2022-08-10T03:59:07.056Z,16.60
2022-08-10T04:02:46.747Z,16.50
2022-08-10T04:04:25.815Z,16.50
2022-08-10T04:06:55.711Z,16.50
2022-08-10T04:09:25.125Z,16.50
2022-08-10T04:12:11.582Z,16.50
2022-08-10T04:14:51.309Z,16.50
2022-08-10T04:17:57.137Z,16.50
2022-08-10T04:20:18.677Z,16.50
2022-08-10T04:22:48.830Z,16.60
2022-08-10T04:25:17.706Z,16.60
2022-08-10T04:27:46.320Z,16.60
2022-08-10T04:30:14.746Z,16.60
2022-08-10T04:32:44.251Z,16.60
2022-08-10T04:35:17.653Z,16.60
2022-08-10T04:37:47.816Z,16.60
2022-08-10T04:40:28.682Z,16.60
2022-08-10T04:43:07.261Z,16.60
2022-08-10T04:45:50.036Z,16.60
2022-08-10T04:48:42.001Z,16.60
2022-08-10T04:51:17.742Z,16.60
2022-08-10T04:54:05.070Z,16.60
2022-08-10T04:56:36.788Z,16.60
2022-08-10T04:59:06.121Z,16.60
2022-08-10T05:02:22.457Z,16.60
2022-08-10T05:04:33.931Z,16.70
2022-08-10T05:07:09.686Z,16.70
2022-08-10T05:10:04.247Z,16.80
2022-08-10T05:12:26.455Z,16.80
2022-08-10T05:14:54.963Z,16.90
2022-08-10T05:17:23.395Z,16.90
2022-08-10T05:20:03.805Z,17.00
2022-08-10T05:22:36.956Z,17.00
2022-08-10T05:25:06.724Z,17.10
2022-08-10T05:27:34.864Z,17.20
2022-08-10T05:30:03.825Z,17.20
2022-08-10T05:32:32.472Z,17.30
2022-08-10T05:35:20.449Z,17.40
2022-08-10T05:38:12.999Z,17.40
2022-08-10T05:40:42.546Z,17.50
2022-08-10T05:43:16.928Z,17.60
2022-08-10T05:46:18.286Z,17.70
2022-08-10T05:48:54.900Z,17.90
2022-08-10T05:51:21.845Z,18.00
2022-08-10T05:54:02.378Z,18.20
2022-08-10T05:56:55.828Z,18.30
2022-08-10T06:00:11.146Z,18.50
2022-08-10T06:02:33.261Z,18.70
2022-08-10T06:05:06.187Z,18.90
2022-08-10T06:07:36.010Z,19.10
2022-08-10T06:10:10.031Z,19.30
2022-08-10T06:12:54.848Z,19.50
2022-08-10T06:15:52.267Z,19.70
2022-08-10T06:18:14.340Z,19.80
2022-08-10T06:20:43.301Z,20.10
2022-08-10T06:23:12.341Z,20.20
2022-08-10T06:26:11.253Z,20.40
2022-08-10T06:28:33.501Z,20.60
2022-08-10T06:31:02.709Z,20.80
2022-08-10T06:33:32.866Z,21.00
2022-08-10T06:36:02.701Z,21.20
2022-08-10T06:38:34.562Z,21.40
2022-08-10T06:41:09.634Z,21.70
2022-08-10T06:43:41.306Z,22.00
2022-08-10T06:46:16.544Z,22.20
2022-08-10T06:48:50.743Z,22.70
2022-08-10T06:51:23.694Z,23.50
2022-08-10T06:53:55.126Z,24.60
2022-08-10T06:56:36.536Z,26.00
2022-08-10T06:59:13.281Z,27.60
2022-08-10T07:01:54.012Z,29.40
2022-08-10T07:04:32.967Z,31.10
2022-08-10T07:07:04.011Z,34.30
2022-08-10T07:09:35.901Z,34.30
2022-08-10T07:12:09.035Z,35.90
2022-08-10T07:14:40.833Z,37.40
2022-08-10T07:17:15.899Z,38.70
2022-08-10T07:19:49.991Z,39.90
2022-08-10T07:23:08.195Z,41.10
2022-08-10T07:25:12.554Z,42.20
2022-08-10T07:28:00.539Z,43.30
2022-08-10T07:30:31.382Z,44.30
2022-08-10T07:33:01.382Z,45.30
2022-08-10T07:35:41.437Z,46.20
2022-08-10T07:38:13.874Z,47.00
2022-08-10T07:40:42.721Z,47.80
2022-08-10T07:43:13.633Z,48.60
2022-08-10T07:45:42.110Z,49.10
2022-08-10T07:48:14.674Z,49.70
2022-08-10T07:50:43.710Z,50.20
2022-08-10T07:53:16.249Z,50.70
2022-08-10T07:56:01.419Z,51.00
2022-08-10T07:58:40.317Z,51.40
2022-08-10T08:01:18.888Z,51.70
2022-08-10T08:04:10.563Z,52.10
2022-08-10T08:06:38.165Z,52.40
2022-08-10T08:09:06.858Z,52.70
2022-08-10T08:14:06.910Z,53.40
2022-08-10T08:16:36.478Z,53.60
2022-08-10T08:24:14.656Z,54.30
2022-08-10T08:24:44.202Z,54.70
2022-08-10T08:27:16.141Z,54.90
2022-08-10T08:29:47.834Z,55.10
2022-08-10T08:32:19.402Z,55.30
2022-08-10T08:34:49.231Z,55.50
2022-08-10T08:38:31.371Z,55.70
2022-08-10T08:40:11.830Z,56.00
2022-08-10T08:42:55.924Z,56.40
2022-08-10T08:45:36.632Z,56.40
2022-08-10T08:48:35.909Z,56.60
2022-08-10T08:51:14.473Z,56.80
2022-08-10T08:54:18.584Z,56.90
2022-08-10T08:56:55.336Z,56.90
2022-08-10T08:59:41.246Z,57.10
2022-08-10T09:02:26.467Z,57.10
2022-08-10T09:05:09.869Z,57.20
2022-08-10T09:08:01.853Z,57.20
2022-08-10T09:10:44.596Z,57.10
2022-08-10T09:13:26.678Z,57.00
2022-08-10T09:16:06.614Z,56.80
2022-08-10T09:18:46.447Z,56.60
2022-08-10T09:21:20.587Z,56.30
2022-08-10T09:24:04.788Z,56.20
2022-08-10T09:26:43.534Z,56.20
2022-08-10T09:29:15.396Z,56.20
2022-08-10T09:31:55.708Z,56.20
2022-08-10T09:36:20.388Z,56.20
2022-08-10T09:38:02.116Z,56.30
2022-08-10T09:41:01.057Z,56.30
2022-08-10T09:43:40.848Z,56.10
2022-08-10T09:46:30.714Z,55.90
2022-08-10T09:49:06.217Z,55.60
2022-08-10T09:51:47.147Z,55.30
2022-08-10T09:54:40.256Z,55.10
2022-08-10T09:57:55.260Z,54.70
2022-08-10T10:00:10.709Z,54.30
2022-08-10T10:02:52.237Z,53.60
2022-08-10T10:05:32.848Z,52.70
2022-08-10T10:08:10.767Z,51.60
2022-08-10T10:10:48.169Z,50.40
2022-08-10T10:14:01.934Z,49.40
2022-08-10T10:16:27.300Z,48.20
2022-08-10T10:19:05.973Z,46.90
2022-08-10T10:21:55.406Z,45.70
2022-08-10T10:24:34.042Z,44.70
2022-08-10T10:27:16.083Z,43.60
2022-08-10T10:29:57.342Z,42.60
2022-08-10T10:32:46.037Z,41.50
2022-08-10T10:35:23.422Z,40.70
2022-08-10T10:38:10.304Z,39.80
2022-08-10T10:40:46.204Z,39.20
2022-08-10T10:43:31.331Z,38.60
2022-08-10T10:46:09.848Z,38.00
2022-08-10T10:48:42.432Z,37.60
2022-08-10T10:51:17.305Z,37.20
2022-08-10T10:53:59.745Z,36.90
2022-08-10T10:56:36.474Z,36.60
2022-08-10T10:59:33.327Z,36.30
2022-08-10T11:02:17.433Z,36.10
2022-08-10T11:04:57.430Z,35.80
2022-08-10T11:07:33.917Z,35.70
2022-08-10T11:10:32.009Z,35.40
2022-08-10T11:14:25.410Z,35.30
2022-08-10T11:16:06.572Z,35.10
2022-08-10T11:18:49.177Z,35.00
2022-08-10T11:21:48.584Z,34.80
2022-08-10T11:24:48.979Z,34.70
2022-08-10T11:27:21.953Z,34.60
2022-08-10T11:30:00.095Z,34.40
2022-08-10T11:32:36.710Z,34.30
2022-08-10T11:35:12.993Z,34.10
2022-08-10T11:38:30.961Z,34.00
2022-08-10T11:40:45.732Z,33.90
2022-08-10T11:43:21.862Z,33.80
2022-08-10T11:46:02.934Z,33.70
2022-08-10T11:48:54.162Z,33.60
2022-08-10T11:51:31.277Z,33.50
2022-08-10T11:54:06.254Z,33.30
2022-08-10T11:56:43.435Z,33.20
2022-08-10T11:59:29.690Z,33.10
2022-08-10T12:01:59.850Z,33.00
2022-08-10T12:04:30.344Z,32.90
2022-08-10T12:07:00.458Z,32.80
2022-08-10T12:10:09.587Z,32.80
2022-08-10T12:12:19.325Z,32.70
2022-08-10T12:14:54.478Z,32.70
2022-08-10T12:17:30.007Z,32.70
2022-08-10T12:20:06.124Z,32.60
2022-08-10T12:22:42.021Z,32.50
2022-08-10T12:25:54.972Z,32.40
2022-08-10T12:28:10.260Z,32.30
2022-08-10T12:30:44.312Z,32.20
2022-08-10T12:33:21.088Z,32.20
2022-08-10T12:36:15.266Z,32.10
2022-08-10T12:38:50.446Z,32.10
2022-08-10T12:41:43.538Z,32.10
2022-08-10T12:44:13.932Z,32.00
2022-08-10T12:46:50.878Z,31.90
2022-08-10T12:49:27.293Z,31.90
2022-08-10T12:52:04.035Z,31.90
2022-08-10T12:54:36.994Z,31.80
2022-08-10T12:57:08.932Z,31.80
2022-08-10T12:59:43.455Z,31.80
2022-08-10T13:02:15.088Z,31.80
2022-08-10T13:04:46.929Z,31.80
2022-08-10T13:08:25.465Z,31.80
2022-08-10T13:10:14.472Z,31.80
2022-08-10T13:12:45.218Z,31.70
2022-08-10T13:15:48.510Z,31.70
2022-08-10T13:18:18.938Z,31.70
2022-08-10T13:20:52.085Z,31.60
2022-08-10T13:23:23.305Z,31.50
2022-08-10T13:25:55.859Z,31.50
2022-08-10T13:28:37.372Z,31.50
2022-08-10T13:31:11.729Z,31.50
2022-08-10T13:34:39.032Z,31.40
2022-08-10T13:36:40.322Z,31.40
2022-08-10T13:39:09.495Z,31.40
2022-08-10T13:41:41.642Z,31.40
2022-08-10T13:44:13.678Z,31.30
2022-08-10T13:46:43.504Z,31.30
2022-08-10T13:49:12.473Z,31.30
2022-08-10T13:51:56.795Z,31.30
2022-08-10T13:54:28.996Z,31.20
2022-08-10T13:56:58.728Z,31.30
2022-08-10T14:00:34.662Z,31.20
2022-08-10T14:02:25.010Z,31.20
2022-08-10T14:04:54.889Z,31.20
2022-08-10T14:07:26.301Z,31.10
2022-08-10T14:09:59.273Z,31.10
2022-08-10T14:12:41.061Z,31.10
2022-08-10T14:15:12.981Z,31.00
2022-08-10T14:17:44.873Z,31.00
2022-08-10T14:20:19.247Z,31.00
2022-08-10T14:22:50.463Z,30.90
2022-08-10T14:25:18.399Z,30.90
2022-08-10T14:28:02.820Z,30.90
2022-08-10T14:30:33.974Z,30.90
2022-08-10T14:33:04.656Z,30.80
2022-08-10T14:36:20.492Z,30.80
2022-08-10T14:38:29.850Z,30.80
2022-08-10T14:41:01.584Z,30.70
2022-08-10T14:43:36.065Z,30.70
2022-08-10T14:46:07.559Z,30.70
2022-08-10T14:48:40.929Z,30.70
2022-08-10T14:51:10.182Z,30.60
2022-08-10T14:53:40.671Z,30.60
2022-08-10T14:56:13.579Z,30.60
2022-08-10T14:59:05.445Z,30.60
2022-08-10T15:02:38.257Z,30.50
2022-08-10T15:04:25.969Z,30.50
2022-08-10T15:06:59.749Z,30.40
2022-08-10T15:09:59.799Z,30.40
2022-08-10T15:12:27.255Z,30.40
2022-08-10T15:15:00.673Z,30.40
2022-08-10T15:17:35.197Z,30.40
2022-08-10T15:20:13.822Z,30.30
2022-08-10T15:22:50.327Z,30.30
2022-08-10T15:25:24.874Z,30.20
2022-08-10T15:27:58.143Z,30.20
2022-08-10T15:30:39.750Z,30.20
2022-08-10T15:34:03.380Z,30.20
2022-08-10T15:37:36.566Z,30.20
2022-08-10T15:40:26.041Z,30.10
2022-08-10T15:42:35.002Z,30.10
2022-08-10T15:45:03.261Z,30.10
2022-08-10T15:47:45.797Z,30.00
2022-08-10T15:50:17.955Z,30.00
2022-08-10T15:53:01.066Z,30.00
2022-08-10T15:55:44.037Z,30.00
2022-08-10T15:58:20.258Z,29.90
2022-08-10T16:02:14.760Z,29.90
2022-08-10T16:04:08.127Z,29.80
2022-08-10T16:06:42.581Z,29.80
2022-08-10T16:10:24.841Z,29.70
2022-08-10T16:12:13.616Z,29.70
2022-08-10T16:14:48.334Z,29.70
2022-08-10T16:17:18.524Z,29.60
2022-08-10T16:19:49.733Z,29.60
2022-08-10T16:22:35.834Z,29.50
2022-08-10T16:25:14.803Z,29.50
2022-08-10T16:27:44.860Z,29.40
2022-08-10T16:30:15.134Z,29.40
2022-08-10T16:32:44.959Z,29.40
2022-08-10T16:35:18.646Z,29.30
2022-08-10T16:37:56.704Z,29.30
2022-08-10T16:40:29.113Z,29.30
2022-08-10T16:42:58.476Z,29.20
2022-08-10T16:45:34.700Z,29.20
2022-08-10T16:48:05.033Z,29.10
2022-08-10T16:50:38.630Z,29.10
2022-08-10T16:53:08.784Z,29.00
2022-08-10T16:55:49.701Z,29.00
2022-08-10T16:58:21.829Z,29.00
2022-08-10T17:00:52.719Z,28.90
2022-08-10T17:04:07.620Z,28.90
2022-08-10T17:06:23.344Z,28.80
2022-08-10T17:08:54.236Z,28.80
2022-08-10T17:11:28.180Z,28.70
2022-08-10T17:13:57.991Z,28.70
2022-08-10T17:16:29.017Z,28.60
2022-08-10T17:18:58.881Z,28.60
2022-08-10T17:21:31.491Z,28.50
2022-08-10T17:24:02.305Z,28.50
2022-08-10T17:26:37.074Z,28.40
2022-08-10T17:29:53.558Z,28.30
2022-08-10T17:32:09.425Z,28.30
2022-08-10T17:34:39.710Z,28.20
2022-08-10T17:37:16.333Z,28.20
2022-08-10T17:39:48.772Z,28.10
2022-08-10T17:42:22.114Z,28.10
2022-08-10T17:44:54.006Z,28.00
2022-08-10T17:47:37.636Z,27.90
2022-08-10T17:50:08.122Z,27.90
2022-08-10T17:52:37.357Z,27.80
2022-08-10T17:55:07.664Z,27.70
2022-08-10T17:57:38.729Z,27.70
2022-08-10T18:00:15.142Z,27.60
2022-08-10T18:02:47.736Z,27.60
2022-08-10T18:05:16.396Z,27.50
2022-08-10T18:07:48.741Z,27.50
2022-08-10T18:10:20.433Z,27.40
2022-08-10T18:12:51.681Z,27.30
2022-08-10T18:15:22.970Z,27.30
2022-08-10T18:17:59.120Z,27.20
2022-08-10T18:20:34.934Z,27.10
2022-08-10T18:23:04.083Z,27.10
2022-08-10T18:25:34.586Z,27.00
2022-08-10T18:28:06.099Z,27.00
2022-08-10T18:30:37.259Z,26.90
2022-08-10T18:33:13.046Z,26.80
2022-08-10T18:35:42.309Z,26.70
2022-08-10T18:38:11.138Z,26.70
2022-08-10T18:40:44.952Z,26.60
2022-08-10T18:44:10.601Z,26.50
2022-08-10T18:46:08.596Z,26.40
2022-08-10T18:48:42.912Z,26.30
2022-08-10T18:51:12.977Z,26.20
2022-08-10T18:53:50.590Z,26.10
2022-08-10T18:56:32.598Z,26.10
2022-08-10T18:59:12.283Z,25.90
2022-08-10T19:01:57.634Z,25.80
2022-08-10T19:04:37.004Z,25.70
2022-08-10T19:07:30.080Z,25.70
2022-08-10T19:10:09.189Z,25.60
2022-08-10T19:12:45.473Z,25.50
2022-08-10T19:15:20.125Z,25.40
2022-08-10T19:18:05.645Z,25.30
2022-08-10T19:20:44.036Z,25.30
2022-08-10T19:23:31.173Z,25.10
2022-08-10T19:26:40.728Z,25.10
2022-08-10T19:29:06.056Z,25.00
2022-08-10T19:31:45.052Z,24.90
2022-08-10T19:34:34.056Z,24.90
2022-08-10T19:37:11.102Z,24.80
2022-08-10T19:39:57.607Z,24.70
2022-08-10T19:42:32.277Z,24.70
2022-08-10T19:45:07.374Z,24.60
2022-08-10T19:47:41.836Z,24.60
2022-08-10T19:50:15.900Z,24.40
2022-08-10T19:52:54.950Z,24.40
2022-08-10T19:55:29.943Z,24.30
2022-08-10T19:58:03.193Z,24.30
2022-08-10T20:00:38.966Z,24.20
2022-08-10T20:03:17.820Z,24.10
2022-08-10T20:06:18.602Z,24.00
2022-08-10T20:08:51.470Z,24.00
2022-08-10T20:11:46.195Z,23.90
2022-08-10T20:14:22.115Z,23.90
2022-08-10T20:16:53.546Z,23.80
2022-08-10T20:19:53.306Z,23.70
2022-08-10T20:22:29.490Z,23.70
2022-08-10T20:25:14.320Z,23.50
2022-08-10T20:28:06.791Z,23.50
2022-08-10T20:30:39.092Z,23.40
2022-08-10T20:33:11.136Z,23.30
2022-08-10T20:35:49.327Z,23.30
2022-08-10T20:38:27.630Z,23.20
2022-08-10T20:41:09.314Z,23.10
2022-08-10T20:43:45.561Z,23.00
2022-08-10T20:46:23.440Z,23.00
2022-08-10T20:48:59.495Z,22.90
2022-08-10T20:51:58.089Z,22.90
2022-08-10T20:54:32.903Z,22.80
2022-08-10T20:57:54.793Z,22.70
2022-08-10T21:00:14.984Z,22.70
2022-08-10T21:03:15.830Z,22.60
2022-08-10T21:05:59.860Z,22.50
2022-08-10T21:08:39.745Z,22.40
2022-08-10T21:11:28.386Z,22.40
2022-08-10T21:14:18.613Z,22.30
2022-08-10T21:17:04.548Z,22.20
2022-08-10T21:20:01.741Z,22.10
2022-08-10T21:22:35.446Z,22.10
2022-08-10T21:25:05.909Z,22.00
2022-08-10T21:27:49.311Z,21.90
2022-08-10T21:30:41.169Z,21.80
2022-08-10T21:33:14.845Z,21.80
2022-08-10T21:35:46.530Z,21.70
2022-08-10T21:38:23.475Z,21.60
2022-08-10T21:41:57.309Z,21.50
2022-08-10T21:45:08.201Z,21.40
2022-08-10T21:48:18.194Z,21.30
2022-08-10T21:51:14.875Z,21.20
2022-08-10T21:54:16.374Z,21.10
2022-08-10T21:57:10.051Z,21.10
2022-08-10T22:00:00.914Z,21.00
2022-08-10T22:02:50.895Z,20.90
2022-08-10T22:05:44.641Z,20.90
2022-08-10T22:08:35.649Z,20.80
2022-08-10T22:11:23.986Z,20.70
2022-08-10T22:14:11.030Z,20.60
2022-08-10T22:17:04.184Z,20.50
2022-08-10T22:19:53.261Z,20.50
2022-08-10T22:26:10.526Z,20.40
2022-08-10T22:29:04.260Z,20.30
2022-08-10T22:31:26.094Z,20.40
2022-08-10T22:32:01.748Z,20.20
2022-08-10T22:35:20.225Z,20.20
2022-08-10T22:38:16.504Z,20.10
2022-08-10T22:41:03.799Z,19.90
2022-08-10T22:43:53.032Z,19.90
2022-08-10T22:46:42.198Z,19.80
2022-08-10T22:49:09.448Z,19.70
2022-08-10T22:51:52.451Z,19.70
2022-08-10T22:55:00.002Z,19.60
2022-08-10T22:57:45.565Z,19.50
2022-08-10T23:00:15.830Z,19.50
2022-08-10T23:02:51.787Z,19.50
2022-08-10T23:05:29.697Z,19.50
2022-08-10T23:08:04.407Z,19.40
2022-08-10T23:10:40.957Z,19.30
2022-08-10T23:13:14.241Z,19.30
2022-08-10T23:16:22.309Z,19.20
2022-08-10T23:19:10.735Z,19.20
2022-08-10T23:22:03.940Z,19.10
2022-08-10T23:24:35.965Z,19.00
2022-08-10T23:27:12.920Z,18.90
2022-08-10T23:30:10.152Z,18.90
2022-08-10T23:32:42.637Z,18.80
2022-08-10T23:36:29.743Z,18.80
2022-08-10T23:38:04.368Z,18.70
2022-08-10T23:40:34.139Z,18.70
2022-08-10T23:43:05.839Z,18.60
2022-08-10T23:45:52.508Z,18.60
2022-08-10T23:48:24.277Z,18.50
2022-08-10T23:50:58.553Z,18.50
2022-08-10T23:53:30.468Z,18.50
2022-08-10T23:56:04.409Z,18.40
2022-08-10T23:58:42.883Z,18.40
